Time;durP1;ratioP1;P1;durP2;ratioP2;P2;SDS_P1;SDS_P2;PMS_P1;PMS_P2;Temp;Humidity;BMP_temperature;BMP_pressure;BME280_temperature;BME280_humidity;BME280_pressure;Samples;Min_cycle;Max_cycle;Signal;HPM_P1;HPM_P2
2021/05/27 06:12:20;;;;;;;17.38;8.65;;;11.00;99.90;;;;;;3614736;39;1314301;-86
2021/05/27 06:14:46;;;;;;;28.35;9.18;;;11.00;99.90;;;;;;3639989;39;20071;-88
2021/05/27 06:17:12;;;;;;;28.20;9.35;;;10.90;99.90;;;;;;3615855;39;20051;-87
2021/05/27 06:19:38;;;;;;;29.23;8.38;;;11.00;99.90;;;;;;3635715;39;20042;-86
2021/05/27 06:22:06;;;;;;;22.00;8.98;;;11.00;99.90;;;;;;3635552;39;20050;-87
2021/05/27 06:24:32;;;;;;;31.60;8.25;;;11.00;99.90;;;;;;3628406;39;20074;-86
2021/05/27 06:26:57;;;;;;;22.20;8.90;;;11.00;99.90;;;;;;3631371;39;20047;-87
2021/05/27 06:29:23;;;;;;;21.10;8.23;;;11.10;99.90;;;;;;3629050;39;20055;-88
2021/05/27 06:31:49;;;;;;;31.95;8.60;;;11.10;99.90;;;;;;3636209;39;20050;-88
2021/05/27 06:34:15;;;;;;;22.75;8.63;;;11.10;99.90;;;;;;3631637;39;20046;-90
2021/05/27 06:36:40;;;;;;;31.55;9.88;;;11.20;99.90;;;;;;3630344;39;20126;-83
2021/05/27 06:39:06;;;;;;;26.98;9.00;;;11.20;99.90;;;;;;3633568;39;20082;-85
2021/05/27 06:41:32;;;;;;;25.85;7.82;;;11.30;99.90;;;;;;3632950;39;20428;-85
2021/05/27 06:43:58;;;;;;;24.55;8.55;;;11.40;99.90;;;;;;3633139;39;20054;-85
2021/05/27 06:46:25;;;;;;;18.23;6.00;;;11.50;99.90;;;;;;3630690;39;20051;-84
2021/05/27 06:48:51;;;;;;;19.30;6.43;;;11.50;99.90;;;;;;3621597;39;20050;-84
2021/05/27 06:51:17;;;;;;;22.67;7.90;;;11.40;99.90;;;;;;3629788;39;20050;-84
2021/05/27 06:53:42;;;;;;;22.45;6.32;;;11.40;99.90;;;;;;3635346;39;20074;-89
2021/05/27 06:56:08;;;;;;;21.70;7.63;;;11.30;99.90;;;;;;3636523;39;20123;-91
2021/05/27 06:58:35;;;;;;;17.45;6.15;;;11.40;99.90;;;;;;3635379;39;20074;-88
2021/05/27 07:01:01;;;;;;;18.40;5.95;;;11.40;99.90;;;;;;3623322;39;20189;-90
2021/05/27 07:03:28;;;;;;;24.02;6.65;;;11.50;99.90;;;;;;3633200;39;20042;-89
2021/05/27 07:05:55;;;;;;;18.27;5.30;;;11.40;99.90;;;;;;3629688;39;20048;-89
2021/05/27 07:08:20;;;;;;;17.85;5.30;;;11.50;99.90;;;;;;3626601;39;20042;-88
2021/05/27 07:10:46;;;;;;;17.58;5.03;;;11.50;99.90;;;;;;3622256;39;20075;-89
2021/05/27 07:13:12;;;;;;;19.50;4.55;;;11.40;99.90;;;;;;3629407;39;20039;-89
2021/05/27 07:15:38;;;;;;;13.80;4.03;;;11.40;99.90;;;;;;3633706;39;20046;-89
2021/05/27 07:18:05;;;;;;;15.52;3.88;;;11.50;99.90;;;;;;3632877;39;20120;-89
2021/05/27 07:20:31;;;;;;;23.67;4.63;;;11.40;99.90;;;;;;3633644;39;20234;-89
2021/05/27 07:22:57;;;;;;;18.02;4.20;;;11.40;99.90;;;;;;3619099;39;20270;-89
2021/05/27 07:25:24;;;;;;;17.02;4.50;;;11.40;99.90;;;;;;3611683;39;20050;-87
2021/05/27 07:27:51;;;;;;;13.93;4.78;;;11.40;99.90;;;;;;3606565;39;20054;-88
2021/05/27 07:30:18;;;;;;;13.77;4.35;;;11.40;99.90;;;;;;3618458;39;20066;-89
2021/05/27 07:32:45;;;;;;;17.83;4.88;;;11.30;99.90;;;;;;3616177;39;20050;-87
2021/05/27 07:35:12;;;;;;;21.85;4.32;;;11.30;99.90;;;;;;3615574;39;20055;-89
2021/05/27 07:37:39;;;;;;;13.32;3.63;;;11.20;99.90;;;;;;3616625;39;20086;-90
2021/05/27 07:40:05;;;;;;;20.40;4.15;;;11.20;99.90;;;;;;3617313;39;20051;-89
2021/05/27 07:42:33;;;;;;;19.40;4.40;;;11.30;99.90;;;;;;3613209;39;20075;-85
2021/05/27 07:44:58;;;;;;;18.00;3.60;;;11.10;99.90;;;;;;3613620;39;20099;-86
2021/05/27 07:47:24;;;;;;;14.32;3.47;;;11.20;99.90;;;;;;3609543;39;20060;-89
2021/05/27 07:49:49;;;;;;;19.70;4.95;;;11.30;99.90;;;;;;3605131;39;20428;-88
2021/05/27 07:52:15;;;;;;;18.67;4.18;;;11.20;99.90;;;;;;3615941;39;20054;-81
2021/05/27 07:54:43;;;;;;;22.10;5.72;;;11.30;99.90;;;;;;3616065;39;20128;-84
2021/05/27 07:57:09;;;;;;;14.48;2.88;;;11.40;99.90;;;;;;3616305;39;20524;-87
2021/05/27 07:59:34;;;;;;;15.90;3.45;;;11.50;99.90;;;;;;3612716;39;20062;-88
2021/05/27 08:02:00;;;;;;;23.15;4.32;;;11.60;99.90;;;;;;3614444;39;20048;-88
2021/05/27 08:04:26;;;;;;;16.38;3.83;;;11.70;99.90;;;;;;3615403;39;20038;-88
2021/05/27 08:06:52;;;;;;;13.82;2.72;;;11.80;99.90;;;;;;3616888;39;20105;-87
2021/05/27 08:09:17;;;;;;;17.20;3.67;;;11.90;99.90;;;;;;3616857;39;20055;-88
2021/05/27 08:11:44;;;;;;;18.45;3.92;;;12.00;99.90;;;;;;3617023;39;20043;-86
2021/05/27 08:14:11;;;;;;;14.57;3.38;;;12.00;99.90;;;;;;3607836;39;20135;-88
2021/05/27 08:16:37;;;;;;;16.50;3.28;;;12.10;99.90;;;;;;3616505;39;20062;-88
2021/05/27 08:19:04;;;;;;;21.65;4.07;;;12.10;99.90;;;;;;3607616;39;20143;-87
2021/05/27 08:21:30;;;;;;;16.42;4.30;;;12.10;99.90;;;;;;3618733;39;20071;-88
2021/05/27 08:23:57;;;;;;;15.07;3.67;;;12.30;99.90;;;;;;3624653;39;20058;-88
2021/05/27 08:26:23;;;;;;;17.20;3.25;;;12.40;99.90;;;;;;3616199;39;20039;-89
2021/05/27 08:28:49;;;;;;;16.10;4.07;;;12.40;99.90;;;;;;3611826;39;20142;-88
2021/05/27 08:31:15;;;;;;;15.65;3.90;;;12.30;99.90;;;;;;3616827;39;20039;-89
2021/05/27 08:33:41;;;;;;;16.27;3.65;;;12.30;99.90;;;;;;3606659;39;20072;-89
2021/05/27 08:36:07;;;;;;;19.58;3.95;;;12.10;99.90;;;;;;3617750;39;20054;-88
2021/05/27 08:38:34;;;;;;;21.10;4.10;;;12.00;99.90;;;;;;3609348;39;20462;-89
2021/05/27 08:41:00;;;;;;;17.60;3.80;;;12.00;99.90;;;;;;3617562;39;20420;-89
2021/05/27 08:43:30;;;;;;;18.17;4.35;;;12.00;99.90;;;;;;3607293;39;20165;-85
2021/05/27 08:45:57;;;;;;;16.20;4.43;;;12.00;99.90;;;;;;3612355;39;20039;-88
2021/05/27 08:48:23;;;;;;;19.85;4.47;;;12.00;99.90;;;;;;3615878;39;20043;-87
2021/05/27 08:50:49;;;;;;;28.30;5.70;;;12.10;99.90;;;;;;3613138;39;20081;-89
2021/05/27 08:53:17;;;;;;;15.65;4.35;;;12.00;99.90;;;;;;3616904;39;20059;-89
2021/05/27 08:55:43;;;;;;;18.10;4.20;;;12.20;99.90;;;;;;3615096;39;20483;-89
2021/05/27 08:58:09;;;;;;;20.83;3.80;;;12.20;99.90;;;;;;3615202;39;20140;-87
2021/05/27 09:00:36;;;;;;;14.07;3.92;;;12.40;99.90;;;;;;3614948;39;20067;-87
2021/05/27 09:03:05;;;;;;;16.98;3.55;;;12.20;99.90;;;;;;3615889;39;20049;-86
2021/05/27 09:05:36;;;;;;;18.55;4.38;;;12.20;99.90;;;;;;3615291;39;20051;-88
2021/05/27 09:08:02;;;;;;;20.13;4.65;;;12.20;99.90;;;;;;3608964;39;20134;-87
2021/05/27 09:10:48;;;;;;;19.58;3.95;;;11.80;99.90;;;;;;3611081;39;20047;-87
2021/05/27 09:13:19;;;;;;;18.40;4.40;;;11.90;99.90;;;;;;3605380;39;20072;-88
2021/05/27 09:15:46;;;;;;;23.20;3.80;;;12.10;99.90;;;;;;3614455;39;20051;-86
2021/05/27 09:18:12;;;;;;;22.13;3.95;;;11.90;99.90;;;;;;3604968;39;20177;-87
2021/05/27 09:20:38;;;;;;;18.50;3.42;;;11.90;99.90;;;;;;3615309;39;20317;-88
2021/05/27 09:23:11;;;;;;;26.85;3.55;;;11.70;99.90;;;;;;3616531;39;20043;-88
2021/05/27 09:25:38;;;;;;;;;;;11.80;99.90;;;;;;3606443;39;20771;-88
2021/05/27 09:28:08;;;;;;;19.05;4.28;;;11.80;99.90;;;;;;3614643;39;19951;-88
2021/05/27 09:30:45;;;;;;;32.40;4.82;;;12.00;99.90;;;;;;3606819;39;20054;-88
2021/05/27 09:33:11;;;;;;;18.77;4.30;;;11.90;99.90;;;;;;3613251;39;20072;-83
2021/05/27 09:35:37;;;;;;;26.70;5.75;;;11.60;99.90;;;;;;3613758;39;20146;-83
2021/05/27 09:38:04;;;;;;;19.98;3.83;;;11.80;99.90;;;;;;3614321;39;20424;-84
2021/05/27 09:40:45;;;;;;;21.85;4.55;;;11.80;99.90;;;;;;3613635;39;20055;-84
2021/05/27 09:43:19;;;;;;;16.25;3.45;;;12.00;99.90;;;;;;3607106;39;20303;-84
2021/05/27 09:46:03;;;;;;;19.52;3.80;;;12.10;99.90;;;;;;3614788;39;20062;-83
2021/05/27 09:48:28;;;;;;;;;;;12.10;99.90;;;;;;3614898;39;20047;-84
2021/05/27 09:50:56;;;;;;;15.32;3.83;;;12.20;99.90;;;;;;3614851;39;19946;-83
2021/05/27 09:53:27;;;;;;;16.45;4.03;;;12.60;99.90;;;;;;3614879;39;20043;-84
2021/05/27 09:55:57;;;;;;;21.48;4.63;;;12.70;99.90;;;;;;3614603;39;20054;-84
2021/05/27 09:58:24;;;;;;;18.65;4.38;;;12.70;99.90;;;;;;3614968;39;20151;-84
2021/05/27 10:00:51;;;;;;;22.20;4.97;;;12.70;99.90;;;;;;3615500;39;20472;-83
2021/05/27 10:03:41;;;;;;;14.10;3.88;;;12.60;99.90;;;;;;3612220;39;20047;-84
2021/05/27 10:06:09;;;;;;;16.00;3.05;;;12.40;99.90;;;;;;3614623;39;20506;-82
2021/05/27 10:08:51;;;;;;;19.10;3.90;;;12.30;99.90;;;;;;3614547;39;20079;-83
2021/05/27 10:11:19;;;;;;;20.75;3.70;;;12.20;99.90;;;;;;3613839;39;20373;-84
2021/05/27 10:13:45;;;;;;;15.52;3.85;;;12.10;99.90;;;;;;3614739;39;20047;-86
2021/05/27 10:16:16;;;;;;;16.70;3.15;;;12.00;99.90;;;;;;3613708;39;20350;-81
2021/05/27 10:18:43;;;;;;;29.35;3.47;;;12.10;99.90;;;;;;3611193;39;20066;-82
2021/05/27 10:21:11;;;;;;;16.98;3.40;;;12.10;99.90;;;;;;3606577;39;20281;-83
2021/05/27 10:23:37;;;;;;;20.63;3.85;;;12.30;99.90;;;;;;3614483;39;20043;-82
2021/05/27 10:26:03;;;;;;;17.88;3.22;;;12.60;99.90;;;;;;3614444;39;20420;-82
2021/05/27 10:28:30;;;;;;;21.27;3.58;;;12.50;99.90;;;;;;3614561;39;20328;-81
2021/05/27 10:30:56;;;;;;;17.60;3.40;;;12.40;99.90;;;;;;3614474;39;20054;-82
2021/05/27 10:33:24;;;;;;;14.98;2.78;;;12.50;99.90;;;;;;3613922;39;20062;-82
2021/05/27 10:35:53;;;;;;;20.00;4.10;;;12.70;99.90;;;;;;3614804;39;21383;-82
2021/05/27 10:38:55;;;;;;;16.25;3.88;;;12.30;99.90;;;;;;3613152;39;20047;-82
2021/05/27 10:41:22;;;;;;;16.67;3.80;;;12.50;99.90;;;;;;3581027;40;20549;-81
2021/05/27 10:44:02;;;;;;;17.40;4.28;;;12.80;99.90;;;;;;3607645;39;20069;-82
2021/05/27 10:46:40;;;;;;;14.13;2.95;;;12.70;99.90;;;;;;3613275;39;20040;-88
2021/05/27 10:49:06;;;;;;;16.83;4.07;;;12.70;99.90;;;;;;3604186;39;20051;-88
2021/05/27 10:51:35;;;;;;;19.27;4.45;;;12.90;99.90;;;;;;3614739;39;20046;-88
2021/05/27 10:54:06;;;;;;;13.07;3.25;;;13.00;99.90;;;;;;3604792;39;20139;-87
2021/05/27 10:56:34;;;;;;;21.20;5.07;;;12.90;99.90;;;;;;3606254;39;20328;-88
2021/05/27 10:59:00;;;;;;;20.10;5.00;;;12.80;99.90;;;;;;3616081;39;20051;-88
2021/05/27 11:01:33;;;;;;;26.90;4.80;;;12.50;99.90;;;;;;3615507;39;20046;-88
2021/05/27 11:04:01;;;;;;;24.63;4.30;;;12.40;99.90;;;;;;3614912;39;20323;-89
2021/05/27 11:06:34;;;;;;;18.85;4.05;;;12.50;99.90;;;;;;3616722;39;20046;-88
2021/05/27 11:09:16;;;;;;;20.20;4.20;;;12.40;99.90;;;;;;3616193;39;20039;-89
2021/05/27 11:11:52;;;;;;;23.83;3.97;;;12.50;99.90;;;;;;3615924;39;20039;-88
2021/05/27 11:14:41;;;;;;;26.85;5.20;;;12.60;99.90;;;;;;3616144;39;20059;-86
2021/05/27 11:17:08;;;;;;;21.67;4.80;;;12.50;99.90;;;;;;3615645;39;20054;-88
2021/05/27 11:19:54;;;;;;;18.80;3.30;;;12.80;99.90;;;;;;3613697;39;20382;-87
2021/05/27 11:25:25;;;;;;;22.70;3.83;;;13.00;99.90;;;;;;3616220;39;20128;-88
2021/05/27 11:28:02;;;;;;;21.55;3.92;;;13.10;99.90;;;;;;3607188;39;20039;-86
2021/05/27 11:30:37;;;;;;;25.05;4.32;;;13.20;99.90;;;;;;3609033;39;20063;-86
2021/05/27 11:33:06;;;;;;;21.35;3.40;;;13.20;99.90;;;;;;3615274;39;20062;-89
2021/05/27 11:35:38;;;;;;;15.40;3.95;;;12.90;99.90;;;;;;3615843;39;20070;-88
2021/05/27 11:38:27;;;;;;;15.55;3.45;;;13.10;99.90;;;;;;3616083;39;20079;-88
2021/05/27 11:40:59;;;;;;;21.83;3.95;;;12.90;99.90;;;;;;3616122;39;20059;-87
2021/05/27 11:43:42;;;;;;;16.08;3.47;;;13.10;99.90;;;;;;3615918;39;20054;-88
2021/05/27 11:46:12;;;;;;;;;;;13.50;99.90;;;;;;3616276;39;20043;-88
2021/05/27 11:48:40;;;;;;;14.70;3.17;;;13.00;99.90;;;;;;3615381;39;20213;-87
2021/05/27 11:51:05;;;;;;;13.98;3.30;;;13.00;99.90;;;;;;3616466;39;20142;-88
2021/05/27 11:53:50;;;;;;;17.08;3.10;;;13.20;99.90;;;;;;3615548;39;20059;-88
2021/05/27 11:56:46;;;;;;;15.38;3.75;;;13.20;99.90;;;;;;3615668;39;20062;-86
2021/05/27 11:59:18;;;;;;;13.45;3.50;;;13.30;99.90;;;;;;3616221;39;20446;-87
2021/05/27 12:01:50;;;;;;;15.18;3.08;;;13.50;99.90;;;;;;3615173;39;20421;-88
2021/05/27 12:04:18;;;;;;;19.85;4.43;;;13.50;99.90;;;;;;3616048;39;20162;-87
2021/05/27 12:07:06;;;;;;;18.48;4.28;;;13.60;99.90;;;;;;3615345;39;20145;-88
2021/05/27 12:09:43;;;;;;;23.85;3.83;;;13.30;99.90;;;;;;3615523;39;20376;-87
2021/05/27 12:12:26;;;;;;;23.15;3.72;;;13.50;99.90;;;;;;3615636;39;20682;-88
2021/05/27 12:14:54;;;;;;;20.80;4.55;;;13.50;99.90;;;;;;3616229;39;20072;-86
2021/05/27 12:17:21;;;;;;;12.35;3.25;;;13.40;99.90;;;;;;3606871;39;20097;-86
2021/05/27 12:19:49;;;;;;;19.08;3.28;;;13.40;99.90;;;;;;3612850;39;20057;-87
2021/05/27 12:22:16;;;;;;;24.92;3.60;;;13.20;99.90;;;;;;3606777;39;20047;-87
2021/05/27 12:24:42;;;;;;;22.17;4.00;;;13.40;99.90;;;;;;3618097;39;20055;-87
2021/05/27 12:27:07;;;;;;;19.17;3.85;;;13.30;99.90;;;;;;3616154;39;20046;-88
2021/05/27 12:29:34;;;;;;;25.77;5.85;;;13.40;99.90;;;;;;3618156;39;20059;-87
2021/05/27 12:32:03;;;;;;;31.48;6.35;;;13.10;99.90;;;;;;3622457;39;20043;-87
2021/05/27 12:34:30;;;;;;;17.80;3.20;;;13.00;99.90;;;;;;3624904;39;20444;-88
2021/05/27 12:37:00;;;;;;;17.85;3.70;;;13.10;99.90;;;;;;3624082;39;20233;-88
2021/05/27 12:39:37;;;;;;;14.65;3.58;;;13.20;99.90;;;;;;3624391;39;20057;-87
2021/05/27 12:42:07;;;;;;;16.88;3.33;;;13.10;99.90;;;;;;3624096;39;20158;-88
2021/05/27 12:44:38;;;;;;;13.60;3.30;;;13.40;99.90;;;;;;3611779;39;20069;-86
2021/05/27 12:47:22;;;;;;;17.40;4.00;;;13.30;99.90;;;;;;3607195;39;20095;-89
2021/05/27 12:49:49;;;;;;;16.63;3.47;;;13.40;99.90;;;;;;3617192;39;20078;-88
2021/05/27 12:52:43;;;;;;;7.93;2.92;;;13.60;99.90;;;;;;3616914;39;20511;-89
2021/05/27 12:55:10;;;;;;;9.07;2.90;;;13.40;99.90;;;;;;3616085;39;20420;-87
2021/05/27 12:57:50;;;;;;;11.25;3.45;;;13.40;99.90;;;;;;3615842;39;20051;-86
2021/05/27 13:00:16;;;;;;;17.88;3.53;;;13.30;99.90;;;;;;3615890;39;20043;-88
2021/05/27 13:02:41;;;;;;;22.08;4.95;;;13.20;99.90;;;;;;3615584;39;20328;-86
2021/05/27 13:05:15;;;;;;;14.88;3.03;;;13.50;99.90;;;;;;3606603;39;20231;-89
2021/05/27 13:07:59;;;;;;;13.82;3.70;;;13.40;99.90;;;;;;3616210;39;20059;-87
2021/05/27 13:10:28;;;;;;;;;;;13.40;99.90;;;;;;3615829;39;20298;-87
2021/05/27 13:12:53;;;;;;;17.40;3.85;;;13.50;99.90;;;;;;3616006;39;19954;-88
2021/05/27 13:15:19;;;;;;;11.70;2.85;;;13.40;99.90;;;;;;3615603;39;20313;-87
2021/05/27 13:18:02;;;;;;;14.93;4.18;;;13.50;99.90;;;;;;3615526;39;20050;-88
2021/05/27 13:20:29;;;;;;;16.20;3.90;;;13.30;99.90;;;;;;3616745;39;20055;-87
2021/05/27 13:22:54;;;;;;;14.07;3.08;;;13.60;99.90;;;;;;3607209;39;20719;-89
2021/05/27 13:25:29;;;;;;;18.45;3.33;;;13.60;99.90;;;;;;3616686;39;20406;-86
2021/05/27 13:27:56;;;;;;;18.88;4.07;;;13.70;99.90;;;;;;3617120;39;20059;-87
2021/05/27 13:30:28;;;;;;;12.73;3.53;;;13.50;99.90;;;;;;3617209;39;20083;-87
2021/05/27 13:33:04;;;;;;;15.20;3.00;;;13.70;99.90;;;;;;3616565;39;20047;-88
2021/05/27 13:35:31;;;;;;;13.75;3.80;;;13.30;99.90;;;;;;3617474;39;20233;-88
2021/05/27 13:37:59;;;;;;;14.23;3.72;;;13.50;99.90;;;;;;3616167;39;20132;-87
2021/05/27 13:40:32;;;;;;;12.88;3.28;;;13.40;99.90;;;;;;3616240;39;20058;-88
2021/05/27 13:43:02;;;;;;;14.20;3.05;;;13.40;99.90;;;;;;3616753;39;20051;-85
2021/05/27 13:45:29;;;;;;;14.02;3.13;;;13.30;99.90;;;;;;3616851;39;20047;-88
2021/05/27 13:47:57;;;;;;;11.02;3.10;;;13.50;99.90;;;;;;3606956;39;20058;-86
2021/05/27 13:50:25;;;;;;;19.52;3.05;;;13.90;99.90;;;;;;3616129;39;20072;-88
2021/05/27 13:52:52;;;;;;;13.27;3.80;;;13.60;99.90;;;;;;3616031;39;20119;-88
2021/05/27 13:55:18;;;;;;;17.85;2.90;;;13.40;99.90;;;;;;3616744;39;20058;-89
2021/05/27 13:57:44;;;;;;;14.30;3.10;;;13.20;99.90;;;;;;3616272;39;20047;-88
2021/05/27 14:00:11;;;;;;;16.25;3.90;;;13.20;99.90;;;;;;3615781;39;20051;-88
2021/05/27 14:02:37;;;;;;;13.50;2.55;;;13.30;99.90;;;;;;3615300;39;20075;-88
2021/05/27 14:05:04;;;;;;;21.35;3.83;;;13.40;99.90;;;;;;3616281;39;20051;-89
2021/05/27 14:07:30;;;;;;;15.75;3.15;;;13.30;99.90;;;;;;3611765;39;20051;-88
2021/05/27 14:09:56;;;;;;;18.15;3.53;;;13.30;99.90;;;;;;3609232;39;20080;-90
2021/05/27 14:12:22;;;;;;;19.48;4.03;;;13.50;99.90;;;;;;3616499;39;20035;-91
2021/05/27 14:14:48;;;;;;;16.17;3.95;;;13.80;99.90;;;;;;3616402;39;20082;-88
2021/05/27 14:17:13;;;;;;;16.50;2.70;;;13.90;99.90;;;;;;3604011;39;20051;-88
2021/05/27 14:19:39;;;;;;;18.48;3.58;;;13.60;99.90;;;;;;3608086;39;20059;-86
2021/05/27 14:22:05;;;;;;;29.30;7.45;;;13.60;99.90;;;;;;3617667;39;20121;-87
2021/05/27 14:24:34;;;;;;;15.05;4.25;;;14.00;99.90;;;;;;3618679;39;20054;-89
2021/05/27 14:27:00;;;;;;;15.60;3.13;;;14.20;99.90;;;;;;3613598;39;20047;-91
2021/05/27 14:29:26;;;;;;;11.23;2.72;;;14.10;99.90;;;;;;3615158;39;20051;-88
2021/05/27 14:31:54;;;;;;;15.63;3.15;;;13.90;99.90;;;;;;3610344;39;20069;-91
2021/05/27 14:34:21;;;;;;;13.30;2.90;;;13.90;99.90;;;;;;3614643;39;20200;-89
2021/05/27 14:36:48;;;;;;;13.45;3.13;;;13.50;99.90;;;;;;3619670;39;20054;-90
2021/05/27 14:39:14;;;;;;;19.30;4.28;;;13.80;99.90;;;;;;3620981;39;20051;-90
2021/05/27 14:41:40;;;;;;;12.40;2.67;;;14.00;99.90;;;;;;3620512;39;20061;-87
2021/05/27 14:44:06;;;;;;;16.15;2.92;;;14.10;99.90;;;;;;3622315;39;20066;-89
2021/05/27 14:46:32;;;;;;;18.42;5.38;;;13.70;99.90;;;;;;3611316;39;20273;-88
2021/05/27 14:48:58;;;;;;;14.77;3.72;;;14.30;99.90;;;;;;3610512;39;20055;-89
2021/05/27 14:51:24;;;;;;;13.85;2.88;;;14.00;99.90;;;;;;3611018;39;20123;-89
2021/05/27 14:53:49;;;;;;;11.63;2.92;;;13.80;99.90;;;;;;3620879;39;20059;-87
2021/05/27 14:56:16;;;;;;;14.52;3.08;;;13.30;99.90;;;;;;3610190;39;20039;-88
2021/05/27 14:58:41;;;;;;;15.43;3.88;;;13.10;99.90;;;;;;3612345;39;20062;-89
2021/05/27 15:01:07;;;;;;;9.90;2.55;;;13.00;99.90;;;;;;3621588;39;20043;-90
2021/05/27 15:03:33;;;;;;;12.27;2.60;;;12.90;99.90;;;;;;3623540;39;20090;-87
2021/05/27 15:05:59;;;;;;;12.27;3.08;;;13.40;99.90;;;;;;3616613;39;20054;-89
2021/05/27 15:08:25;;;;;;;9.43;3.05;;;13.40;99.90;;;;;;3609169;39;20275;-89
2021/05/27 15:10:51;;;;;;;17.23;2.60;;;13.30;99.90;;;;;;3611835;39;20050;-90
2021/05/27 15:13:17;;;;;;;12.80;2.75;;;13.50;99.90;;;;;;3605421;39;20626;-90
2021/05/27 15:15:43;;;;;;;8.45;2.40;;;13.70;99.90;;;;;;3621637;39;20399;-90
2021/05/27 15:18:09;;;;;;;16.90;3.25;;;14.00;99.90;;;;;;3621842;39;20638;-89
2021/05/27 15:20:35;;;;;;;13.02;3.33;;;14.10;99.90;;;;;;3604404;39;20046;-89
2021/05/27 15:23:01;;;;;;;9.70;2.10;;;14.20;99.90;;;;;;3613263;39;20405;-90
2021/05/27 15:25:29;;;;;;;16.90;2.40;;;13.70;99.90;;;;;;3621312;39;20054;-90
2021/05/27 15:28:01;;;;;;;14.70;4.57;;;13.40;99.90;;;;;;3623103;39;20031;-89
2021/05/27 15:30:29;;;;;;;11.98;2.45;;;13.60;99.90;;;;;;3620824;39;20381;-87
2021/05/27 15:32:55;;;;;;;17.20;4.50;;;13.20;99.90;;;;;;3611485;39;20060;-91
2021/05/27 15:35:24;;;;;;;13.95;2.30;;;13.30;99.90;;;;;;3623021;39;20067;-91
2021/05/27 15:37:52;;;;;;;10.65;2.42;;;13.10;99.90;;;;;;3606259;39;20353;-89
2021/05/27 15:40:27;;;;;;;9.90;2.78;;;13.10;99.90;;;;;;3606279;39;20048;-89
2021/05/27 15:43:10;;;;;;;15.50;3.60;;;13.20;99.90;;;;;;3615680;39;20058;-90
2021/05/27 15:45:50;;;;;;;12.13;2.50;;;13.30;99.90;;;;;;3619982;39;20051;-90
2021/05/27 15:48:18;;;;;;;9.93;2.78;;;13.20;99.90;;;;;;3627691;39;20796;-88
2021/05/27 15:50:45;;;;;;;17.35;3.05;;;13.10;99.90;;;;;;3632397;39;20053;-88
2021/05/27 15:53:12;;;;;;;8.98;1.83;;;13.10;99.90;;;;;;3614949;39;20345;-89
2021/05/27 15:55:38;;;;;;;10.10;2.20;;;13.20;99.90;;;;;;3623009;39;20050;-90
2021/05/27 15:58:03;;;;;;;11.98;2.30;;;13.10;99.90;;;;;;3622514;39;20039;-87
2021/05/27 16:00:30;;;;;;;7.40;2.08;;;13.20;99.90;;;;;;3612916;39;20379;-89
2021/05/27 16:02:57;;;;;;;9.82;2.47;;;13.10;99.90;;;;;;3614557;39;20039;-89
2021/05/27 16:05:23;;;;;;;17.85;2.28;;;12.80;99.90;;;;;;3613692;39;20047;-89
2021/05/27 16:07:50;;;;;;;12.55;2.65;;;13.00;99.90;;;;;;3606806;39;20057;-89
2021/05/27 16:10:16;;;;;;;14.85;2.25;;;13.00;99.90;;;;;;3614048;39;20043;-89
2021/05/27 16:12:43;;;;;;;11.20;2.45;;;12.90;99.90;;;;;;3614043;39;20036;-89
2021/05/27 16:15:10;;;;;;;15.48;3.28;;;13.10;99.90;;;;;;3602756;39;20327;-89
2021/05/27 16:17:36;;;;;;;11.90;2.63;;;13.10;99.90;;;;;;3611086;39;20051;-89
2021/05/27 16:20:03;;;;;;;15.05;3.08;;;13.00;99.90;;;;;;3606178;39;20287;-89
2021/05/27 16:22:29;;;;;;;7.25;2.00;;;13.00;99.90;;;;;;3621253;39;20103;-88
2021/05/27 16:24:55;;;;;;;10.25;2.08;;;12.90;99.90;;;;;;3616028;39;20054;-89
2021/05/27 16:27:21;;;;;;;12.55;2.42;;;12.80;99.90;;;;;;3625004;39;20047;-89
2021/05/27 16:29:47;;;;;;;12.18;2.75;;;12.60;99.90;;;;;;3607397;39;20048;-88
2021/05/27 16:32:14;;;;;;;10.60;2.55;;;12.70;99.90;;;;;;3618520;39;20327;-90
2021/05/27 16:34:43;;;;;;;8.00;1.95;;;12.70;99.90;;;;;;3616656;39;20051;-90
2021/05/27 16:39:54;;;;;;;6.85;1.88;;;12.80;99.90;;;;;;3624358;39;20055;-90
2021/05/27 16:42:20;;;;;;;17.08;4.43;;;12.80;99.90;;;;;;3614789;39;20090;-88
2021/05/27 16:44:46;;;;;;;9.73;2.58;;;13.10;99.90;;;;;;3625048;39;20047;-91
2021/05/27 16:47:12;;;;;;;12.90;2.10;;;12.90;99.90;;;;;;3626202;39;20109;-88
2021/05/27 16:49:39;;;;;;;12.18;2.22;;;13.00;99.90;;;;;;3613476;39;20067;-92
2021/05/27 16:52:06;;;;;;;8.32;2.05;;;12.70;99.90;;;;;;3615867;39;20042;-88
2021/05/27 16:54:32;;;;;;;8.82;1.92;;;12.70;99.90;;;;;;3615387;39;20062;-90
2021/05/27 16:56:58;;;;;;;11.40;2.17;;;12.50;99.90;;;;;;3605487;39;20055;-87
2021/05/27 16:59:31;;;;;;;12.65;2.50;;;12.60;99.90;;;;;;3615536;39;20059;-90
2021/05/27 17:01:57;;;;;;;8.15;2.33;;;12.60;99.90;;;;;;3616145;39;20060;-89
2021/05/27 17:04:23;;;;;;;9.48;2.75;;;12.50;99.90;;;;;;3613471;39;20473;-88
2021/05/27 17:06:49;;;;;;;12.02;2.47;;;12.60;99.90;;;;;;3611688;39;20051;-90
2021/05/27 17:09:15;;;;;;;13.48;2.40;;;12.50;99.90;;;;;;3623180;39;20050;-89
2021/05/27 17:11:41;;;;;;;12.75;2.85;;;12.40;99.90;;;;;;3610359;39;20059;-88
2021/05/27 17:14:08;;;;;;;16.00;2.63;;;12.40;99.90;;;;;;3612502;39;20073;-88
2021/05/27 17:16:35;;;;;;;12.63;3.20;;;12.40;99.90;;;;;;3609758;39;20055;-90
2021/05/27 17:19:01;;;;;;;9.80;2.58;;;12.40;99.90;;;;;;3613671;39;20046;-87
2021/05/27 17:21:26;;;;;;;16.35;2.80;;;12.30;99.90;;;;;;3617549;39;20358;-88
2021/05/27 17:23:52;;;;;;;15.40;3.58;;;12.50;99.90;;;;;;3619882;39;20061;-88
2021/05/27 17:26:18;;;;;;;12.50;2.70;;;12.50;99.90;;;;;;3619329;39;20058;-88
2021/05/27 17:28:44;;;;;;;16.73;2.92;;;12.60;99.90;;;;;;3620271;39;20047;-87
2021/05/27 17:31:10;;;;;;;11.82;2.92;;;12.60;99.90;;;;;;3617012;39;20051;-89
2021/05/27 17:33:36;;;;;;;16.13;3.33;;;12.50;99.90;;;;;;3619325;39;20050;-88
2021/05/27 17:36:02;;;;;;;17.05;3.20;;;12.60;99.90;;;;;;3615129;39;20151;-89
2021/05/27 17:38:27;;;;;;;13.95;2.65;;;12.50;99.90;;;;;;3619619;39;20058;-89
2021/05/27 17:40:53;;;;;;;12.50;2.65;;;12.60;99.90;;;;;;3617886;39;20352;-89
2021/05/27 17:43:19;;;;;;;13.85;2.75;;;12.60;99.90;;;;;;3606935;39;21462;-88
2021/05/27 17:45:45;;;;;;;7.78;2.55;;;12.60;99.90;;;;;;3619606;39;20042;-89
2021/05/27 17:48:10;;;;;;;10.48;2.28;;;12.40;99.90;;;;;;3615606;39;20050;-90
2021/05/27 17:50:37;;;;;;;11.23;2.42;;;12.60;99.90;;;;;;3619234;39;20046;-89
2021/05/27 17:53:05;;;;;;;10.60;2.83;;;12.50;99.90;;;;;;3615987;39;20155;-89
2021/05/27 17:55:31;;;;;;;16.42;2.58;;;12.50;99.90;;;;;;3610983;39;20400;-89
2021/05/27 17:57:57;;;;;;;15.25;2.85;;;12.40;99.90;;;;;;3609572;39;20055;-89
2021/05/27 18:00:23;;;;;;;11.55;2.33;;;12.50;99.90;;;;;;3617782;39;20051;-88
2021/05/27 18:02:52;;;;;;;13.57;3.00;;;12.50;99.90;;;;;;3620343;39;20418;-88
2021/05/27 18:05:18;;;;;;;10.35;2.30;;;12.50;99.90;;;;;;3612914;39;20111;-88
2021/05/27 18:07:43;;;;;;;8.70;2.35;;;12.60;99.90;;;;;;3610473;39;20346;-89
2021/05/27 18:10:10;;;;;;;8.75;2.20;;;12.50;99.90;;;;;;3615738;39;20397;-89
2021/05/27 18:12:37;;;;;;;14.25;3.00;;;12.50;99.90;;;;;;3605938;39;20064;-88
2021/05/27 18:15:07;;;;;;;8.27;2.22;;;12.40;99.90;;;;;;3614805;39;20139;-88
2021/05/27 18:17:33;;;;;;;8.05;2.22;;;12.30;99.90;;;;;;3609254;39;20059;-88
2021/05/27 18:19:59;;;;;;;10.38;2.70;;;12.30;99.90;;;;;;3609502;39;20266;-88
2021/05/27 18:22:25;;;;;;;9.07;2.75;;;12.20;99.90;;;;;;3614171;39;20164;-88
2021/05/27 18:24:50;;;;;;;11.52;2.55;;;12.30;99.90;;;;;;3621546;39;20057;-91
2021/05/27 18:27:17;;;;;;;8.80;2.30;;;12.20;99.90;;;;;;3621658;39;20047;-90
2021/05/27 18:29:44;;;;;;;8.32;2.90;;;12.20;99.90;;;;;;3622672;39;20112;-88
2021/05/27 18:32:10;;;;;;;7.68;2.28;;;12.20;99.90;;;;;;3613908;39;20148;-90
2021/05/27 18:34:36;;;;;;;7.45;2.25;;;12.20;99.90;;;;;;3621028;39;20450;-91
2021/05/27 18:37:02;;;;;;;9.98;2.38;;;12.00;99.90;;;;;;3620852;39;20131;-87
2021/05/27 18:39:28;;;;;;;9.75;2.78;;;12.00;99.90;;;;;;3612604;39;20321;-90
2021/05/27 18:41:57;;;;;;;10.02;2.40;;;12.00;99.90;;;;;;3618463;39;20306;-89
2021/05/27 18:44:22;;;;;;;12.52;2.78;;;11.90;99.90;;;;;;3611549;39;20586;-90
2021/05/27 18:46:49;;;;;;;11.45;2.50;;;12.00;99.90;;;;;;3606625;39;20047;-89
2021/05/27 18:49:17;;;;;;;8.25;3.13;;;11.90;99.90;;;;;;3611906;39;20623;-89
2021/05/27 18:51:43;;;;;;;8.23;2.45;;;11.90;99.90;;;;;;3623654;39;20031;-90
2021/05/27 18:54:09;;;;;;;12.02;2.35;;;11.90;99.90;;;;;;3605635;39;20042;-90
2021/05/27 18:56:36;;;;;;;12.25;2.58;;;11.90;99.90;;;;;;3622867;39;20055;-88
2021/05/27 18:59:02;;;;;;;7.47;2.22;;;11.80;99.90;;;;;;3615704;39;20035;-89
2021/05/27 19:01:28;;;;;;;7.10;2.33;;;11.80;99.90;;;;;;3616624;39;20047;-91